sensor_id;sensor_type;location;lat;lon;timestamp;temperature;humidity
23305;DHT22;11821;51.456;8.844;2023-05-10T00:01:04;18.20;99.90
23305;DHT22;11821;51.456;8.844;2023-05-10T00:03:30;18.20;99.90
23305;DHT22;11821;51.456;8.844;2023-05-10T00:05:56;18.10;99.90
23305;DHT22;11821;51.456;8.844;2023-05-10T00:08:23;18.10;99.90
23305;DHT22;11821;51.456;8.844;2023-05-10T00:10:49;18.10;99.90
23305;DHT22;11821;51.456;8.844;2023-05-10T00:13:16;18.10;99.90
23305;DHT22;11821;51.456;8.844;2023-05-10T00:15:42;18.10;99.90
23305;DHT22;11821;51.456;8.844;2023-05-10T00:18:08;18.10;99.90
23305;DHT22;11821;51.456;8.844;2023-05-10T00:20:35;18.10;99.90
23305;DHT22;11821;51.456;8.844;2023-05-10T00:23:01;18.20;99.90
23305;DHT22;11821;51.456;8.844;2023-05-10T00:25:27;18.10;99.90
23305;DHT22;11821;51.456;8.844;2023-05-10T00:27:53;18.10;99.90
23305;DHT22;11821;51.456;8.844;2023-05-10T00:30:21;18.10;99.90
23305;DHT22;11821;51.456;8.844;2023-05-10T00:32:47;18.00;99.90
23305;DHT22;11821;51.456;8.844;2023-05-10T00:35:16;18.00;99.90
23305;DHT22;11821;51.456;8.844;2023-05-10T00:37:42;18.00;99.90
23305;DHT22;11821;51.456;8.844;2023-05-10T00:40:08;17.90;99.90
23305;DHT22;11821;51.456;8.844;2023-05-10T00:42:35;18.00;99.90
23305;DHT22;11821;51.456;8.844;2023-05-10T00:45:01;18.00;99.90
23305;DHT22;11821;51.456;8.844;2023-05-10T00:47:28;17.90;99.90
23305;DHT22;11821;51.456;8.844;2023-05-10T00:49:56;17.90;99.90
23305;DHT22;11821;51.456;8.844;2023-05-10T00:52:22;17.90;99.90
23305;DHT22;11821;51.456;8.844;2023-05-10T00:54:51;17.90;99.90
23305;DHT22;11821;51.456;8.844;2023-05-10T00:57:18;17.90;99.90
23305;DHT22;11821;51.456;8.844;2023-05-10T00:59:44;17.90;99.90
23305;DHT22;11821;51.456;8.844;2023-05-10T01:02:12;17.90;99.90
23305;DHT22;11821;51.456;8.844;2023-05-10T01:04:39;17.90;99.90
23305;DHT22;11821;51.456;8.844;2023-05-10T01:07:05;17.90;99.90
23305;DHT22;11821;51.456;8.844;2023-05-10T01:09:32;17.90;99.90
23305;DHT22;11821;51.456;8.844;2023-05-10T01:11:59;17.90;99.90
23305;DHT22;11821;51.456;8.844;2023-05-10T01:14:27;17.90;99.90
23305;DHT22;11821;51.456;8.844;2023-05-10T01:16:54;17.80;99.90
23305;DHT22;11821;51.456;8.844;2023-05-10T01:19:25;17.90;99.90
23305;DHT22;11821;51.456;8.844;2023-05-10T01:35:03;17.90;99.90
23305;DHT22;11821;51.456;8.844;2023-05-10T01:40:23;17.90;99.90
23305;DHT22;11821;51.456;8.844;2023-05-10T01:42:56;17.80;99.90
23305;DHT22;11821;51.456;8.844;2023-05-10T01:45:45;17.80;99.90
23305;DHT22;11821;51.456;8.844;2023-05-10T01:48:14;17.80;99.90
23305;DHT22;11821;51.456;8.844;2023-05-10T01:50:43;17.90;99.90
23305;DHT22;11821;51.456;8.844;2023-05-10T01:53:12;17.80;99.90
23305;DHT22;11821;51.456;8.844;2023-05-10T01:55:52;17.80;99.90
23305;DHT22;11821;51.456;8.844;2023-05-10T01:58:24;17.80;99.90
23305;DHT22;11821;51.456;8.844;2023-05-10T02:00:52;17.70;99.90
23305;DHT22;11821;51.456;8.844;2023-05-10T02:03:24;17.60;99.90
23305;DHT22;11821;51.456;8.844;2023-05-10T02:05:52;17.40;99.90
23305;DHT22;11821;51.456;8.844;2023-05-10T02:08:22;17.50;99.90
23305;DHT22;11821;51.456;8.844;2023-05-10T02:10:51;17.40;99.90
23305;DHT22;11821;51.456;8.844;2023-05-10T02:13:19;17.40;99.90
23305;DHT22;11821;51.456;8.844;2023-05-10T02:15:48;17.50;99.90
23305;DHT22;11821;51.456;8.844;2023-05-10T02:18:15;17.40;99.90
23305;DHT22;11821;51.456;8.844;2023-05-10T02:20:43;17.40;99.90
23305;DHT22;11821;51.456;8.844;2023-05-10T02:23:11;17.30;99.90
23305;DHT22;11821;51.456;8.844;2023-05-10T02:25:38;17.40;99.90
23305;DHT22;11821;51.456;8.844;2023-05-10T02:28:06;17.40;99.90
23305;DHT22;11821;51.456;8.844;2023-05-10T02:30:35;17.30;99.90
23305;DHT22;11821;51.456;8.844;2023-05-10T02:33:04;17.10;99.90
23305;DHT22;11821;51.456;8.844;2023-05-10T02:35:32;17.00;99.90
23305;DHT22;11821;51.456;8.844;2023-05-10T02:38:00;16.90;99.90
23305;DHT22;11821;51.456;8.844;2023-05-10T02:40:27;17.00;99.90
23305;DHT22;11821;51.456;8.844;2023-05-10T02:42:56;17.10;99.90
23305;DHT22;11821;51.456;8.844;2023-05-10T02:45:27;17.00;99.90
23305;DHT22;11821;51.456;8.844;2023-05-10T02:47:55;17.00;99.90
23305;DHT22;11821;51.456;8.844;2023-05-10T02:50:27;17.00;99.90
23305;DHT22;11821;51.456;8.844;2023-05-10T02:53:01;17.10;99.90
23305;DHT22;11821;51.456;8.844;2023-05-10T02:55:36;17.10;99.90
23305;DHT22;11821;51.456;8.844;2023-05-10T02:58:03;17.00;99.90
23305;DHT22;11821;51.456;8.844;2023-05-10T03:00:30;17.00;99.90
23305;DHT22;11821;51.456;8.844;2023-05-10T03:02:56;17.10;99.90
23305;DHT22;11821;51.456;8.844;2023-05-10T03:05:23;17.10;99.90
23305;DHT22;11821;51.456;8.844;2023-05-10T03:07:50;17.10;99.90
23305;DHT22;11821;51.456;8.844;2023-05-10T03:10:17;17.10;99.90
23305;DHT22;11821;51.456;8.844;2023-05-10T03:16:10;17.10;99.90
23305;DHT22;11821;51.456;8.844;2023-05-10T03:18:50;17.10;99.90
23305;DHT22;11821;51.456;8.844;2023-05-10T03:21:22;16.90;99.90
23305;DHT22;11821;51.456;8.844;2023-05-10T03:23:58;17.00;99.90
23305;DHT22;11821;51.456;8.844;2023-05-10T03:26:27;16.90;99.90
23305;DHT22;11821;51.456;8.844;2023-05-10T03:31:31;16.90;99.90
23305;DHT22;11821;51.456;8.844;2023-05-10T03:33:57;16.70;99.90
23305;DHT22;11821;51.456;8.844;2023-05-10T03:36:26;16.80;99.90
23305;DHT22;11821;51.456;8.844;2023-05-10T03:38:54;16.80;99.90
23305;DHT22;11821;51.456;8.844;2023-05-10T03:41:20;16.80;99.90
23305;DHT22;11821;51.456;8.844;2023-05-10T03:43:47;16.80;99.90
23305;DHT22;11821;51.456;8.844;2023-05-10T03:48:40;16.70;99.90
23305;DHT22;11821;51.456;8.844;2023-05-10T03:53:33;16.70;99.90
23305;DHT22;11821;51.456;8.844;2023-05-10T03:56:00;16.60;99.90
23305;DHT22;11821;51.456;8.844;2023-05-10T03:58:26;16.60;99.90
23305;DHT22;11821;51.456;8.844;2023-05-10T04:00:52;16.60;99.90
23305;DHT22;11821;51.456;8.844;2023-05-10T04:03:20;16.50;99.90
23305;DHT22;11821;51.456;8.844;2023-05-10T04:05:46;16.50;99.90
23305;DHT22;11821;51.456;8.844;2023-05-10T04:08:12;16.60;99.90
23305;DHT22;11821;51.456;8.844;2023-05-10T04:10:39;16.70;99.90
23305;DHT22;11821;51.456;8.844;2023-05-10T04:13:05;16.70;99.90
23305;DHT22;11821;51.456;8.844;2023-05-10T04:15:32;16.70;99.90
23305;DHT22;11821;51.456;8.844;2023-05-10T04:17:58;16.60;99.90
23305;DHT22;11821;51.456;8.844;2023-05-10T04:20:24;16.50;99.90
23305;DHT22;11821;51.456;8.844;2023-05-10T04:22:51;16.50;99.90
23305;DHT22;11821;51.456;8.844;2023-05-10T04:25:17;16.50;99.90
23305;DHT22;11821;51.456;8.844;2023-05-10T04:27:43;16.50;99.90
23305;DHT22;11821;51.456;8.844;2023-05-10T04:59:31;16.40;99.90
23305;DHT22;11821;51.456;8.844;2023-05-10T05:01:57;16.60;99.90
23305;DHT22;11821;51.456;8.844;2023-05-10T05:26:24;16.60;99.90
23305;DHT22;11821;51.456;8.844;2023-05-10T05:28:50;16.30;99.90
23305;DHT22;11821;51.456;8.844;2023-05-10T05:31:20;16.30;99.90
23305;DHT22;11821;51.456;8.844;2023-05-10T05:45:59;16.40;99.90
23305;DHT22;11821;51.456;8.844;2023-05-10T05:48:25;16.70;99.90
23305;DHT22;11821;51.456;8.844;2023-05-10T05:50:55;16.70;99.90
23305;DHT22;11821;51.456;8.844;2023-05-10T05:53:25;16.70;99.90
23305;DHT22;11821;51.456;8.844;2023-05-10T05:55:55;16.50;99.90
23305;DHT22;11821;51.456;8.844;2023-05-10T05:58:22;16.40;99.90
23305;DHT22;11821;51.456;8.844;2023-05-10T06:00:49;16.60;99.90
23305;DHT22;11821;51.456;8.844;2023-05-10T06:03:16;16.60;99.90
23305;DHT22;11821;51.456;8.844;2023-05-10T06:05:42;16.70;99.90
23305;DHT22;11821;51.456;8.844;2023-05-10T06:08:08;16.60;99.90
23305;DHT22;11821;51.456;8.844;2023-05-10T06:10:35;16.70;99.90
23305;DHT22;11821;51.456;8.844;2023-05-10T06:13:02;16.70;99.90
23305;DHT22;11821;51.456;8.844;2023-05-10T06:15:28;16.60;99.90
23305;DHT22;11821;51.456;8.844;2023-05-10T06:17:55;16.60;99.90
23305;DHT22;11821;51.456;8.844;2023-05-10T06:20:21;16.70;99.90
23305;DHT22;11821;51.456;8.844;2023-05-10T06:22:47;16.80;99.90
23305;DHT22;11821;51.456;8.844;2023-05-10T06:25:14;16.80;99.90
23305;DHT22;11821;51.456;8.844;2023-05-10T06:27:40;16.80;99.90
23305;DHT22;11821;51.456;8.844;2023-05-10T06:30:07;16.90;99.90
23305;DHT22;11821;51.456;8.844;2023-05-10T06:32:34;16.90;99.90
23305;DHT22;11821;51.456;8.844;2023-05-10T06:35:01;16.90;99.90
23305;DHT22;11821;51.456;8.844;2023-05-10T06:37:27;17.00;99.90
23305;DHT22;11821;51.456;8.844;2023-05-10T06:39:53;17.10;99.90
23305;DHT22;11821;51.456;8.844;2023-05-10T06:44:46;17.30;99.90
23305;DHT22;11821;51.456;8.844;2023-05-10T06:47:12;17.50;99.90
23305;DHT22;11821;51.456;8.844;2023-05-10T06:49:39;17.50;99.90
23305;DHT22;11821;51.456;8.844;2023-05-10T06:52:06;17.70;99.90
23305;DHT22;11821;51.456;8.844;2023-05-10T06:54:32;17.90;99.90
23305;DHT22;11821;51.456;8.844;2023-05-10T06:56:58;18.20;99.90
23305;DHT22;11821;51.456;8.844;2023-05-10T06:59:25;18.40;99.90
23305;DHT22;11821;51.456;8.844;2023-05-10T07:01:51;18.40;99.90
23305;DHT22;11821;51.456;8.844;2023-05-10T07:04:17;18.30;99.90
23305;DHT22;11821;51.456;8.844;2023-05-10T07:06:44;18.10;99.90
23305;DHT22;11821;51.456;8.844;2023-05-10T07:09:12;18.10;99.90
23305;DHT22;11821;51.456;8.844;2023-05-10T07:11:39;18.10;99.90
23305;DHT22;11821;51.456;8.844;2023-05-10T07:14:05;18.00;99.90
23305;DHT22;11821;51.456;8.844;2023-05-10T07:16:32;18.00;99.90
23305;DHT22;11821;51.456;8.844;2023-05-10T07:18:58;18.00;99.90
23305;DHT22;11821;51.456;8.844;2023-05-10T07:21:24;18.10;99.90
23305;DHT22;11821;51.456;8.844;2023-05-10T07:23:54;18.10;99.90
23305;DHT22;11821;51.456;8.844;2023-05-10T07:26:20;18.30;99.90
23305;DHT22;11821;51.456;8.844;2023-05-10T07:28:47;18.30;99.90
23305;DHT22;11821;51.456;8.844;2023-05-10T07:31:13;18.40;99.90
23305;DHT22;11821;51.456;8.844;2023-05-10T07:33:39;18.30;99.90
23305;DHT22;11821;51.456;8.844;2023-05-10T07:36:06;18.30;99.90
23305;DHT22;11821;51.456;8.844;2023-05-10T07:38:32;18.50;99.90
23305;DHT22;11821;51.456;8.844;2023-05-10T07:40:59;18.60;99.90
23305;DHT22;11821;51.456;8.844;2023-05-10T07:43:25;18.70;99.90
23305;DHT22;11821;51.456;8.844;2023-05-10T07:45:51;18.90;99.90
23305;DHT22;11821;51.456;8.844;2023-05-10T07:48:18;19.00;99.90
23305;DHT22;11821;51.456;8.844;2023-05-10T07:50:44;19.10;99.90
23305;DHT22;11821;51.456;8.844;2023-05-10T07:53:10;19.00;99.90
23305;DHT22;11821;51.456;8.844;2023-05-10T07:55:37;19.00;99.90
23305;DHT22;11821;51.456;8.844;2023-05-10T07:58:03;19.00;99.90
23305;DHT22;11821;51.456;8.844;2023-05-10T08:00:29;18.80;99.90
23305;DHT22;11821;51.456;8.844;2023-05-10T08:02:56;18.80;99.90
23305;DHT22;11821;51.456;8.844;2023-05-10T08:05:22;18.70;99.90
23305;DHT22;11821;51.456;8.844;2023-05-10T08:07:48;18.70;99.90
23305;DHT22;11821;51.456;8.844;2023-05-10T08:10:15;18.50;99.90
23305;DHT22;11821;51.456;8.844;2023-05-10T08:12:41;18.60;99.90
23305;DHT22;11821;51.456;8.844;2023-05-10T08:15:08;18.60;99.90
23305;DHT22;11821;51.456;8.844;2023-05-10T08:17:34;18.60;99.90
23305;DHT22;11821;51.456;8.844;2023-05-10T08:20:01;18.60;99.90
23305;DHT22;11821;51.456;8.844;2023-05-10T08:22:27;18.50;99.90
23305;DHT22;11821;51.456;8.844;2023-05-10T08:24:53;18.60;99.90
23305;DHT22;11821;51.456;8.844;2023-05-10T08:27:20;18.60;99.90
23305;DHT22;11821;51.456;8.844;2023-05-10T08:29:46;18.70;99.90
23305;DHT22;11821;51.456;8.844;2023-05-10T08:32:12;18.90;99.90
23305;DHT22;11821;51.456;8.844;2023-05-10T08:34:38;19.00;99.90
23305;DHT22;11821;51.456;8.844;2023-05-10T08:37:05;19.00;99.90
23305;DHT22;11821;51.456;8.844;2023-05-10T08:39:34;19.00;99.90
23305;DHT22;11821;51.456;8.844;2023-05-10T08:42:03;19.10;99.90
23305;DHT22;11821;51.456;8.844;2023-05-10T08:44:35;19.10;99.90
23305;DHT22;11821;51.456;8.844;2023-05-10T08:47:05;19.10;99.90
23305;DHT22;11821;51.456;8.844;2023-05-10T09:16:28;19.40;99.90
23305;DHT22;11821;51.456;8.844;2023-05-10T09:18:54;20.30;99.90
23305;DHT22;11821;51.456;8.844;2023-05-10T09:21:21;20.60;99.90
23305;DHT22;11821;51.456;8.844;2023-05-10T09:23:47;21.10;99.90
23305;DHT22;11821;51.456;8.844;2023-05-10T09:26:16;21.60;99.90
23305;DHT22;11821;51.456;8.844;2023-05-10T09:28:52;22.00;99.90
23305;DHT22;11821;51.456;8.844;2023-05-10T09:31:18;22.00;99.90
23305;DHT22;11821;51.456;8.844;2023-05-10T09:33:45;22.10;99.90
23305;DHT22;11821;51.456;8.844;2023-05-10T09:36:12;22.20;99.90
23305;DHT22;11821;51.456;8.844;2023-05-10T09:38:49;22.30;99.90
23305;DHT22;11821;51.456;8.844;2023-05-10T09:41:21;22.50;99.90
23305;DHT22;11821;51.456;8.844;2023-05-10T09:43:49;22.60;99.90
23305;DHT22;11821;51.456;8.844;2023-05-10T09:46:16;22.40;99.90
23305;DHT22;11821;51.456;8.844;2023-05-10T09:48:47;22.40;99.90
23305;DHT22;11821;51.456;8.844;2023-05-10T09:51:24;22.40;99.90
23305;DHT22;11821;51.456;8.844;2023-05-10T09:54:10;22.50;99.90
23305;DHT22;11821;51.456;8.844;2023-05-10T09:56:37;22.60;99.90
23305;DHT22;11821;51.456;8.844;2023-05-10T09:59:09;22.70;99.90
23305;DHT22;11821;51.456;8.844;2023-05-10T10:01:36;22.70;99.90
23305;DHT22;11821;51.456;8.844;2023-05-10T10:04:07;22.70;99.90
23305;DHT22;11821;51.456;8.844;2023-05-10T10:06:39;22.60;99.90
23305;DHT22;11821;51.456;8.844;2023-05-10T10:09:06;22.70;99.90
23305;DHT22;11821;51.456;8.844;2023-05-10T10:11:37;22.60;99.90
23305;DHT22;11821;51.456;8.844;2023-05-10T10:14:04;22.30;99.90
23305;DHT22;11821;51.456;8.844;2023-05-10T10:16:31;22.10;99.90
23305;DHT22;11821;51.456;8.844;2023-05-10T10:18:58;21.80;99.90
23305;DHT22;11821;51.456;8.844;2023-05-10T10:21:24;21.70;99.90
23305;DHT22;11821;51.456;8.844;2023-05-10T10:23:52;21.60;99.90
23305;DHT22;11821;51.456;8.844;2023-05-10T10:26:19;21.60;99.90
23305;DHT22;11821;51.456;8.844;2023-05-10T10:31:32;21.80;99.90
23305;DHT22;11821;51.456;8.844;2023-05-10T10:34:05;22.40;99.90
23305;DHT22;11821;51.456;8.844;2023-05-10T10:36:40;22.80;99.90
23305;DHT22;11821;51.456;8.844;2023-05-10T10:39:09;23.30;99.90
23305;DHT22;11821;51.456;8.844;2023-05-10T10:41:38;23.60;99.90
23305;DHT22;11821;51.456;8.844;2023-05-10T10:47:07;23.60;99.90
23305;DHT22;11821;51.456;8.844;2023-05-10T10:54:50;24.20;99.90
23305;DHT22;11821;51.456;8.844;2023-05-10T10:57:18;24.70;99.90
23305;DHT22;11821;51.456;8.844;2023-05-10T10:59:45;24.70;99.90
23305;DHT22;11821;51.456;8.844;2023-05-10T11:02:34;24.70;99.90
23305;DHT22;11821;51.456;8.844;2023-05-10T11:11:06;24.50;99.90
23305;DHT22;11821;51.456;8.844;2023-05-10T11:13:42;24.60;99.90
23305;DHT22;11821;51.456;8.844;2023-05-10T11:16:21;25.00;99.90
23305;DHT22;11821;51.456;8.844;2023-05-10T11:21:32;24.90;99.90
23305;DHT22;11821;51.456;8.844;2023-05-10T11:23:59;25.10;99.90
23305;DHT22;11821;51.456;8.844;2023-05-10T11:26:34;25.20;99.90
23305;DHT22;11821;51.456;8.844;2023-05-10T11:29:01;25.40;99.90
23305;DHT22;11821;51.456;8.844;2023-05-10T11:31:29;25.10;99.90
23305;DHT22;11821;51.456;8.844;2023-05-10T11:33:59;25.20;99.90
23305;DHT22;11821;51.456;8.844;2023-05-10T11:36:34;25.00;99.90
23305;DHT22;11821;51.456;8.844;2023-05-10T11:39:02;24.70;99.90
23305;DHT22;11821;51.456;8.844;2023-05-10T11:41:30;24.70;99.90
23305;DHT22;11821;51.456;8.844;2023-05-10T11:43:57;24.40;99.90
23305;DHT22;11821;51.456;8.844;2023-05-10T11:46:26;24.20;99.90
23305;DHT22;11821;51.456;8.844;2023-05-10T11:49:01;24.10;99.90
23305;DHT22;11821;51.456;8.844;2023-05-10T11:51:35;24.00;99.90
23305;DHT22;11821;51.456;8.844;2023-05-10T11:54:06;23.70;99.90
23305;DHT22;11821;51.456;8.844;2023-05-10T11:56:34;23.40;99.90
23305;DHT22;11821;51.456;8.844;2023-05-10T11:59:00;23.20;99.90
23305;DHT22;11821;51.456;8.844;2023-05-10T12:01:29;23.10;99.90
23305;DHT22;11821;51.456;8.844;2023-05-10T12:03:57;23.10;99.90
23305;DHT22;11821;51.456;8.844;2023-05-10T12:06:31;23.20;99.90
23305;DHT22;11821;51.456;8.844;2023-05-10T12:08:58;23.00;99.90
23305;DHT22;11821;51.456;8.844;2023-05-10T12:11:26;22.80;99.90
23305;DHT22;11821;51.456;8.844;2023-05-10T12:13:53;22.90;99.90
23305;DHT22;11821;51.456;8.844;2023-05-10T12:18:56;22.80;99.90
23305;DHT22;11821;51.456;8.844;2023-05-10T12:21:22;22.70;99.90
23305;DHT22;11821;51.456;8.844;2023-05-10T12:23:53;22.80;99.90
23305;DHT22;11821;51.456;8.844;2023-05-10T12:26:25;22.70;99.90
23305;DHT22;11821;51.456;8.844;2023-05-10T12:29:18;22.50;99.90
23305;DHT22;11821;51.456;8.844;2023-05-10T12:31:58;22.50;99.90
23305;DHT22;11821;51.456;8.844;2023-05-10T12:34:31;22.50;99.90
23305;DHT22;11821;51.456;8.844;2023-05-10T12:36:57;22.70;99.90
23305;DHT22;11821;51.456;8.844;2023-05-10T12:39:24;22.70;99.90
23305;DHT22;11821;51.456;8.844;2023-05-10T12:41:51;22.70;99.90
23305;DHT22;11821;51.456;8.844;2023-05-10T12:44:18;22.80;99.90
23305;DHT22;11821;51.456;8.844;2023-05-10T12:46:44;22.90;99.90
23305;DHT22;11821;51.456;8.844;2023-05-10T12:49:11;22.90;99.90
23305;DHT22;11821;51.456;8.844;2023-05-10T12:51:37;23.00;99.90
23305;DHT22;11821;51.456;8.844;2023-05-10T12:54:03;23.10;99.90
23305;DHT22;11821;51.456;8.844;2023-05-10T12:56:30;23.10;99.90
23305;DHT22;11821;51.456;8.844;2023-05-10T12:58:56;23.00;99.90
23305;DHT22;11821;51.456;8.844;2023-05-10T13:01:22;23.00;99.90
23305;DHT22;11821;51.456;8.844;2023-05-10T13:03:48;23.10;99.90
23305;DHT22;11821;51.456;8.844;2023-05-10T13:06:15;23.20;99.90
23305;DHT22;11821;51.456;8.844;2023-05-10T13:08:41;23.30;99.90
23305;DHT22;11821;51.456;8.844;2023-05-10T13:11:07;23.10;99.90
23305;DHT22;11821;51.456;8.844;2023-05-10T13:13:33;23.00;99.90
23305;DHT22;11821;51.456;8.844;2023-05-10T13:16:00;22.80;99.90
23305;DHT22;11821;51.456;8.844;2023-05-10T13:18:26;22.80;99.90
23305;DHT22;11821;51.456;8.844;2023-05-10T13:20:53;22.90;99.90
23305;DHT22;11821;51.456;8.844;2023-05-10T13:23:20;22.90;99.90
23305;DHT22;11821;51.456;8.844;2023-05-10T13:25:46;22.90;99.90
23305;DHT22;11821;51.456;8.844;2023-05-10T13:28:12;22.90;99.90
23305;DHT22;11821;51.456;8.844;2023-05-10T13:30:38;22.90;99.90
23305;DHT22;11821;51.456;8.844;2023-05-10T13:33:05;22.80;99.90
23305;DHT22;11821;51.456;8.844;2023-05-10T13:35:31;22.80;99.90
23305;DHT22;11821;51.456;8.844;2023-05-10T13:37:57;22.60;99.90
23305;DHT22;11821;51.456;8.844;2023-05-10T13:40:24;22.70;99.90
23305;DHT22;11821;51.456;8.844;2023-05-10T13:42:50;22.70;99.90
23305;DHT22;11821;51.456;8.844;2023-05-10T13:45:16;22.60;99.90
23305;DHT22;11821;51.456;8.844;2023-05-10T13:47:42;22.60;99.90
23305;DHT22;11821;51.456;8.844;2023-05-10T13:50:09;22.60;99.90
23305;DHT22;11821;51.456;8.844;2023-05-10T13:52:35;22.40;99.90
23305;DHT22;11821;51.456;8.844;2023-05-10T13:55:02;22.40;99.90
23305;DHT22;11821;51.456;8.844;2023-05-10T13:57:28;22.20;99.90
23305;DHT22;11821;51.456;8.844;2023-05-10T13:59:56;22.10;99.90
23305;DHT22;11821;51.456;8.844;2023-05-10T14:02:23;22.10;99.90
23305;DHT22;11821;51.456;8.844;2023-05-10T14:04:50;22.00;99.90
23305;DHT22;11821;51.456;8.844;2023-05-10T14:07:16;21.80;99.90
23305;DHT22;11821;51.456;8.844;2023-05-10T14:09:43;21.90;99.90
23305;DHT22;11821;51.456;8.844;2023-05-10T14:12:09;21.70;99.90
23305;DHT22;11821;51.456;8.844;2023-05-10T14:14:36;21.60;99.90
23305;DHT22;11821;51.456;8.844;2023-05-10T14:17:02;21.30;99.90
23305;DHT22;11821;51.456;8.844;2023-05-10T14:19:28;21.30;99.90
23305;DHT22;11821;51.456;8.844;2023-05-10T14:21:58;21.20;99.90
23305;DHT22;11821;51.456;8.844;2023-05-10T14:24:24;21.20;99.90
23305;DHT22;11821;51.456;8.844;2023-05-10T14:26:51;21.10;99.90
23305;DHT22;11821;51.456;8.844;2023-05-10T14:29:20;21.00;99.90
23305;DHT22;11821;51.456;8.844;2023-05-10T14:31:47;20.90;99.90
23305;DHT22;11821;51.456;8.844;2023-05-10T14:34:14;20.90;99.90
23305;DHT22;11821;51.456;8.844;2023-05-10T14:36:40;20.80;99.90
23305;DHT22;11821;51.456;8.844;2023-05-10T14:39:07;20.80;99.90
23305;DHT22;11821;51.456;8.844;2023-05-10T14:41:34;20.80;99.90
23305;DHT22;11821;51.456;8.844;2023-05-10T14:44:00;20.70;99.90
23305;DHT22;11821;51.456;8.844;2023-05-10T14:46:26;20.70;99.90
23305;DHT22;11821;51.456;8.844;2023-05-10T14:48:53;20.60;99.90
23305;DHT22;11821;51.456;8.844;2023-05-10T14:51:19;20.60;99.90
23305;DHT22;11821;51.456;8.844;2023-05-10T14:53:48;20.50;99.90
23305;DHT22;11821;51.456;8.844;2023-05-10T14:56:15;20.30;99.90
23305;DHT22;11821;51.456;8.844;2023-05-10T14:58:42;20.20;99.90
23305;DHT22;11821;51.456;8.844;2023-05-10T15:01:08;20.20;99.90
23305;DHT22;11821;51.456;8.844;2023-05-10T15:03:34;20.00;99.90
23305;DHT22;11821;51.456;8.844;2023-05-10T15:06:00;20.00;99.90
23305;DHT22;11821;51.456;8.844;2023-05-10T15:08:27;19.90;99.90
23305;DHT22;11821;51.456;8.844;2023-05-10T15:10:53;19.80;99.90
23305;DHT22;11821;51.456;8.844;2023-05-10T15:13:21;19.80;99.90
23305;DHT22;11821;51.456;8.844;2023-05-10T15:15:48;19.80;99.90
23305;DHT22;11821;51.456;8.844;2023-05-10T15:18:14;19.70;99.90
23305;DHT22;11821;51.456;8.844;2023-05-10T15:20:40;19.70;99.90
23305;DHT22;11821;51.456;8.844;2023-05-10T15:23:06;19.60;99.90
23305;DHT22;11821;51.456;8.844;2023-05-10T15:25:33;19.60;99.90
23305;DHT22;11821;51.456;8.844;2023-05-10T15:28:04;19.50;99.90
23305;DHT22;11821;51.456;8.844;2023-05-10T15:30:30;19.50;99.90
23305;DHT22;11821;51.456;8.844;2023-05-10T15:32:57;19.50;99.90
23305;DHT22;11821;51.456;8.844;2023-05-10T15:35:23;19.50;99.90
23305;DHT22;11821;51.456;8.844;2023-05-10T15:37:49;19.40;99.90
23305;DHT22;11821;51.456;8.844;2023-05-10T15:40:16;19.40;99.90
23305;DHT22;11821;51.456;8.844;2023-05-10T15:42:42;19.50;99.90
23305;DHT22;11821;51.456;8.844;2023-05-10T15:45:09;19.40;99.90
23305;DHT22;11821;51.456;8.844;2023-05-10T15:47:36;19.40;99.90
23305;DHT22;11821;51.456;8.844;2023-05-10T15:50:06;19.40;99.90
23305;DHT22;11821;51.456;8.844;2023-05-10T15:52:33;19.30;99.90
23305;DHT22;11821;51.456;8.844;2023-05-10T15:54:59;19.30;99.90
23305;DHT22;11821;51.456;8.844;2023-05-10T15:57:25;19.40;99.90
23305;DHT22;11821;51.456;8.844;2023-05-10T15:59:52;19.40;99.90
23305;DHT22;11821;51.456;8.844;2023-05-10T16:02:18;19.40;99.90
23305;DHT22;11821;51.456;8.844;2023-05-10T16:04:44;19.30;99.90
23305;DHT22;11821;51.456;8.844;2023-05-10T16:07:11;19.30;99.90
23305;DHT22;11821;51.456;8.844;2023-05-10T16:09:37;19.40;99.90
23305;DHT22;11821;51.456;8.844;2023-05-10T16:12:03;19.40;99.90
23305;DHT22;11821;51.456;8.844;2023-05-10T16:14:30;19.40;99.90
23305;DHT22;11821;51.456;8.844;2023-05-10T16:16:56;19.40;99.90
23305;DHT22;11821;51.456;8.844;2023-05-10T16:19:23;19.40;99.90
23305;DHT22;11821;51.456;8.844;2023-05-10T16:21:49;19.50;99.90
23305;DHT22;11821;51.456;8.844;2023-05-10T16:24:15;19.50;99.90
23305;DHT22;11821;51.456;8.844;2023-05-10T16:26:42;19.50;99.90
23305;DHT22;11821;51.456;8.844;2023-05-10T16:29:08;19.50;99.90
23305;DHT22;11821;51.456;8.844;2023-05-10T16:31:35;19.60;99.90
23305;DHT22;11821;51.456;8.844;2023-05-10T16:34:02;19.60;99.90
23305;DHT22;11821;51.456;8.844;2023-05-10T16:36:28;19.60;99.90
23305;DHT22;11821;51.456;8.844;2023-05-10T16:38:56;19.70;99.90
23305;DHT22;11821;51.456;8.844;2023-05-10T16:41:22;19.70;99.90
23305;DHT22;11821;51.456;8.844;2023-05-10T16:43:48;19.70;99.90
23305;DHT22;11821;51.456;8.844;2023-05-10T16:46:15;19.70;99.90
23305;DHT22;11821;51.456;8.844;2023-05-10T16:48:41;19.60;99.90
23305;DHT22;11821;51.456;8.844;2023-05-10T16:51:08;19.70;99.90
23305;DHT22;11821;51.456;8.844;2023-05-10T16:53:34;19.70;99.90
23305;DHT22;11821;51.456;8.844;2023-05-10T16:56:01;19.70;99.90
23305;DHT22;11821;51.456;8.844;2023-05-10T16:58:27;19.70;99.90
23305;DHT22;11821;51.456;8.844;2023-05-10T17:00:54;19.70;99.90
23305;DHT22;11821;51.456;8.844;2023-05-10T17:03:20;19.60;99.90
23305;DHT22;11821;51.456;8.844;2023-05-10T17:05:47;19.60;99.90
23305;DHT22;11821;51.456;8.844;2023-05-10T17:08:13;19.60;99.90
23305;DHT22;11821;51.456;8.844;2023-05-10T17:10:39;19.50;99.90
23305;DHT22;11821;51.456;8.844;2023-05-10T17:13:06;19.50;99.90
23305;DHT22;11821;51.456;8.844;2023-05-10T17:15:35;19.50;99.90
23305;DHT22;11821;51.456;8.844;2023-05-10T17:18:03;19.40;99.90
23305;DHT22;11821;51.456;8.844;2023-05-10T17:20:29;19.40;99.90
23305;DHT22;11821;51.456;8.844;2023-05-10T17:22:56;19.40;99.90
23305;DHT22;11821;51.456;8.844;2023-05-10T17:25:22;19.30;99.90
23305;DHT22;11821;51.456;8.844;2023-05-10T17:27:49;19.30;99.90
23305;DHT22;11821;51.456;8.844;2023-05-10T17:30:15;19.20;99.90
23305;DHT22;11821;51.456;8.844;2023-05-10T17:32:42;19.20;99.90
23305;DHT22;11821;51.456;8.844;2023-05-10T17:35:08;19.10;99.90
23305;DHT22;11821;51.456;8.844;2023-05-10T17:37:34;19.10;99.90
23305;DHT22;11821;51.456;8.844;2023-05-10T17:40:01;19.10;99.90
23305;DHT22;11821;51.456;8.844;2023-05-10T17:42:28;19.10;99.90
23305;DHT22;11821;51.456;8.844;2023-05-10T17:44:55;19.00;99.90
23305;DHT22;11821;51.456;8.844;2023-05-10T17:47:21;18.90;99.90
23305;DHT22;11821;51.456;8.844;2023-05-10T17:49:47;18.90;99.90
23305;DHT22;11821;51.456;8.844;2023-05-10T17:52:14;18.90;99.90
23305;DHT22;11821;51.456;8.844;2023-05-10T17:54:40;18.90;99.90